createdAt,value
2023-04-11T00:00:40.758Z,8.63
2023-04-11T00:05:42.494Z,8.70
2023-04-11T00:10:45.607Z,8.73
2023-04-11T00:15:47.816Z,8.75
2023-04-11T00:20:49.317Z,8.78
2023-04-11T00:25:51.005Z,8.77
2023-04-11T00:30:52.482Z,8.64
2023-04-11T00:35:54.132Z,8.59
2023-04-11T00:40:56.031Z,8.52
2023-04-11T00:45:57.597Z,8.43
2023-04-11T00:50:59.901Z,8.37
2023-04-11T00:56:01.380Z,8.35
2023-04-11T01:01:09.126Z,8.27
2023-04-11T01:06:13.389Z,8.29
2023-04-11T01:11:18.051Z,8.24
2023-04-11T01:16:21.422Z,8.20
2023-04-11T01:21:25.151Z,8.14
2023-04-11T01:26:26.593Z,8.22
2023-04-11T01:31:28.057Z,8.16
2023-04-11T01:36:31.624Z,8.11
2023-04-11T01:41:34.467Z,8.15
2023-04-11T01:46:36.034Z,8.11
2023-04-11T01:51:37.549Z,8.05
2023-04-11T01:56:39.050Z,8.01
2023-04-11T02:01:43.370Z,7.94
2023-04-11T02:06:44.921Z,7.90
2023-04-11T02:11:46.457Z,7.83
2023-04-11T02:16:55.660Z,7.84
2023-04-11T02:21:57.121Z,7.88
2023-04-11T02:26:58.544Z,7.89
2023-04-11T02:32:00.525Z,8.00
2023-04-11T02:37:01.999Z,7.90
2023-04-11T02:42:03.596Z,7.80
2023-04-11T02:47:05.229Z,7.74
2023-04-11T02:52:06.707Z,7.80
2023-04-11T02:57:08.109Z,7.69
2023-04-11T03:02:09.676Z,7.78
2023-04-11T03:07:12.463Z,7.81
2023-04-11T03:12:13.915Z,7.78
2023-04-11T03:17:15.372Z,7.77
2023-04-11T03:22:17.384Z,7.80
2023-04-11T03:27:18.892Z,7.73
2023-04-11T03:32:20.397Z,7.67
2023-04-11T03:37:21.870Z,7.53
2023-04-11T03:42:23.342Z,7.62
2023-04-11T03:47:24.773Z,7.61
2023-04-11T03:52:26.249Z,7.56
2023-04-11T03:57:28.114Z,7.72
2023-04-11T04:02:29.730Z,7.70
2023-04-11T04:07:31.940Z,7.70
2023-04-11T04:12:33.905Z,7.67
2023-04-11T04:17:35.369Z,7.71
2023-04-11T04:22:37.724Z,7.62
2023-04-11T04:27:44.597Z,7.62
2023-04-11T04:32:46.250Z,7.59
2023-04-11T04:37:47.751Z,7.58
2023-04-11T04:42:58.711Z,7.54
2023-04-11T04:48:00.362Z,7.49
2023-04-11T04:53:01.755Z,7.48
2023-04-11T04:58:03.188Z,7.47
2023-04-11T05:03:05.853Z,7.37
2023-04-11T05:08:07.514Z,7.27
2023-04-11T05:13:08.932Z,7.18
2023-04-11T05:18:10.405Z,7.13
2023-04-11T05:23:11.822Z,7.08
2023-04-11T05:28:13.239Z,7.01
2023-04-11T05:33:15.404Z,7.00
2023-04-11T05:38:17.376Z,7.07
2023-04-11T05:43:18.858Z,7.06
2023-04-11T05:48:20.472Z,7.12
2023-04-11T05:53:22.315Z,7.13
2023-04-11T05:58:24.593Z,7.24
2023-04-11T06:03:27.321Z,7.36
2023-04-11T06:08:28.922Z,7.48
2023-04-11T06:13:30.443Z,7.54
2023-04-11T06:18:31.823Z,7.59
2023-04-11T06:23:33.295Z,7.74
2023-04-11T06:28:34.756Z,7.90
2023-04-11T06:33:36.337Z,7.97
2023-04-11T06:38:38.270Z,8.00
2023-04-11T06:43:39.695Z,8.13
2023-04-11T06:48:41.182Z,8.27
2023-04-11T06:53:42.631Z,8.46
2023-04-11T06:58:44.099Z,8.52
2023-04-11T07:03:47.325Z,8.56
2023-04-11T07:08:48.850Z,8.88
2023-04-11T07:13:50.948Z,9.10
2023-04-11T07:18:53.345Z,9.06
2023-04-11T07:23:55.136Z,8.97
2023-04-11T07:28:56.675Z,8.95
2023-04-11T07:33:58.553Z,9.00
2023-04-11T07:39:00.334Z,9.16
2023-04-11T07:44:03.456Z,9.16
2023-04-11T07:49:04.988Z,9.25
2023-04-11T07:54:07.381Z,9.62
2023-04-11T07:59:08.761Z,9.73
2023-04-11T08:04:11.209Z,10.19
2023-04-11T08:09:12.763Z,10.15
2023-04-11T08:14:14.498Z,10.47
2023-04-11T08:19:16.211Z,10.20
2023-04-11T08:24:17.860Z,9.84
2023-04-11T08:29:19.312Z,10.09
2023-04-11T08:34:20.821Z,10.31
2023-04-11T08:39:22.224Z,10.51
2023-04-11T08:44:23.671Z,10.97
2023-04-11T08:49:25.225Z,10.65
2023-04-11T08:54:26.963Z,10.77
2023-04-11T08:59:28.360Z,10.10
2023-04-11T09:04:40.823Z,9.99
2023-04-11T09:09:43.445Z,10.47
2023-04-11T09:14:44.981Z,9.80
2023-04-11T09:19:48.973Z,9.54
2023-04-11T09:25:02.584Z,9.89
2023-04-11T09:30:05.909Z,10.43
2023-04-11T09:35:18.748Z,9.97
2023-04-11T09:40:23.106Z,9.89
2023-04-11T09:45:26.469Z,9.46
2023-04-11T09:50:28.494Z,10.69
2023-04-11T09:55:30.074Z,10.98
2023-04-11T10:00:32.482Z,11.11
2023-04-11T10:05:34.172Z,11.79
2023-04-11T10:10:36.178Z,11.63
2023-04-11T10:15:37.751Z,12.58
2023-04-11T10:20:43.722Z,11.22
2023-04-11T10:25:52.715Z,11.25
2023-04-11T10:31:04.677Z,11.84
2023-04-11T10:36:11.440Z,11.81
2023-04-11T10:41:22.385Z,11.25
2023-04-11T10:46:26.918Z,11.65
2023-04-11T10:51:31.486Z,12.16
2023-04-11T10:56:51.468Z,11.48
2023-04-11T11:01:56.087Z,12.06
2023-04-11T11:07:04.148Z,12.73
2023-04-11T11:12:10.228Z,12.63
2023-04-11T11:17:12.910Z,12.63
2023-04-11T11:22:19.015Z,12.44
2023-04-11T11:27:24.404Z,12.40
2023-04-11T11:32:29.889Z,11.93
2023-04-11T11:37:31.468Z,12.25
2023-04-11T11:42:32.970Z,11.78
2023-04-11T11:47:45.616Z,12.39
2023-04-11T11:52:48.754Z,12.90
2023-04-11T11:57:50.482Z,12.99
2023-04-11T12:02:53.582Z,12.73
2023-04-11T12:07:55.773Z,12.83
2023-04-11T12:12:57.290Z,12.43
2023-04-11T12:17:58.774Z,12.93
2023-04-11T12:23:00.384Z,13.13
2023-04-11T12:28:01.924Z,13.23
2023-04-11T12:33:03.853Z,12.47
2023-04-11T12:38:06.500Z,12.35
2023-04-11T12:43:07.896Z,12.24
2023-04-11T12:48:09.393Z,12.26
2023-04-11T12:53:10.927Z,13.33
2023-04-11T12:58:12.325Z,12.87
2023-04-11T13:03:13.988Z,12.60
2023-04-11T13:08:15.896Z,12.68
2023-04-11T13:13:18.840Z,12.93
2023-04-11T13:18:20.654Z,13.43
2023-04-11T13:23:22.233Z,12.75
2023-04-11T13:28:23.712Z,12.71
2023-04-11T13:33:26.414Z,12.71
2023-04-11T13:38:28.201Z,12.78
2023-04-11T13:43:29.733Z,12.65
2023-04-11T13:48:31.185Z,12.72
2023-04-11T13:53:32.570Z,12.94
2023-04-11T13:58:34.395Z,12.47
2023-04-11T14:03:36.077Z,12.67
2023-04-11T14:08:37.837Z,12.49
2023-04-11T14:13:39.271Z,12.47
2023-04-11T14:18:40.876Z,12.63
2023-04-11T14:23:42.488Z,12.78
2023-04-11T14:28:43.894Z,12.66
2023-04-11T14:33:45.302Z,12.46
2023-04-11T14:38:46.874Z,12.61
2023-04-11T14:43:48.296Z,12.59
2023-04-11T14:48:49.712Z,12.39
2023-04-11T14:53:55.019Z,12.46
2023-04-11T14:58:56.788Z,12.44
2023-04-11T15:03:58.570Z,12.53
2023-04-11T15:09:00.431Z,12.65
2023-04-11T15:14:02.422Z,12.57
2023-04-11T15:19:04.134Z,12.56
2023-04-11T15:24:07.431Z,12.54
2023-04-11T15:29:13.893Z,12.51
2023-04-11T15:34:15.337Z,12.62
2023-04-11T15:39:17.031Z,12.67
2023-04-11T15:44:18.464Z,12.73
2023-04-11T15:49:24.142Z,12.76
2023-04-11T15:54:25.592Z,12.39
2023-04-11T15:59:27.061Z,12.33
2023-04-11T16:04:29.798Z,12.37
2023-04-11T16:09:31.601Z,12.38
2023-04-11T16:14:33.041Z,12.40
2023-04-11T16:19:34.681Z,12.50
2023-04-11T16:24:36.172Z,12.55
2023-04-11T16:29:37.667Z,12.54
2023-04-11T16:34:39.096Z,12.45
2023-04-11T16:39:40.555Z,12.45
2023-04-11T16:44:42.349Z,12.19
2023-04-11T16:49:45.080Z,12.30
2023-04-11T16:54:47.934Z,12.22
2023-04-11T16:59:49.436Z,12.03
2023-04-11T17:04:51.321Z,12.07
2023-04-11T17:09:53.090Z,12.09
2023-04-11T17:14:55.893Z,11.89
2023-04-11T17:19:57.572Z,11.78
2023-04-11T17:24:59.958Z,11.73
2023-04-11T17:30:02.193Z,11.59
2023-04-11T17:35:05.930Z,11.49
2023-04-11T17:40:11.617Z,11.48
2023-04-11T17:50:17.729Z,11.28
2023-04-11T17:55:19.660Z,11.17
2023-04-11T18:00:23.182Z,11.05
2023-04-11T18:05:30.732Z,10.89
2023-04-11T18:10:32.301Z,10.80
2023-04-11T18:15:34.180Z,10.76
2023-04-11T18:20:35.653Z,10.70
2023-04-11T18:25:37.050Z,10.61
2023-04-11T18:30:38.759Z,10.47
2023-04-11T18:35:40.413Z,10.59
2023-04-11T18:40:42.134Z,10.51
2023-04-11T18:45:44.976Z,10.54
2023-04-11T18:50:48.784Z,10.45
2023-04-11T18:55:50.628Z,10.45
2023-04-11T19:00:52.098Z,10.37
2023-04-11T19:05:54.152Z,10.35
2023-04-11T19:10:56.836Z,10.38
2023-04-11T19:15:58.432Z,10.42
2023-04-11T19:20:59.875Z,10.40
2023-04-11T19:26:02.258Z,10.39
2023-04-11T19:31:03.848Z,10.30
2023-04-11T19:36:06.171Z,10.23
2023-04-11T19:41:12.701Z,10.25
2023-04-11T19:46:23.084Z,10.19
2023-04-11T19:51:24.930Z,10.19
2023-04-11T19:56:28.035Z,10.07
2023-04-11T20:01:29.663Z,10.04
2023-04-11T20:06:34.641Z,10.03
2023-04-11T20:11:39.152Z,10.02
2023-04-11T20:16:40.956Z,9.95
2023-04-11T20:21:42.457Z,9.98
2023-04-11T20:26:43.944Z,10.05
2023-04-11T20:31:45.358Z,10.12
2023-04-11T20:36:47.488Z,10.08
2023-04-11T20:41:50.073Z,10.05
2023-04-11T20:46:53.464Z,9.96
2023-04-11T20:51:56.341Z,10.01
2023-04-11T20:56:57.840Z,9.98
2023-04-11T21:01:59.520Z,9.95
2023-04-11T21:07:01.418Z,9.91
2023-04-11T21:12:03.288Z,9.90
2023-04-11T21:17:07.942Z,9.93
2023-04-11T21:22:09.432Z,9.86
2023-04-11T21:27:11.113Z,9.80
2023-04-11T21:32:12.753Z,9.76
2023-04-11T21:37:14.254Z,9.69
2023-04-11T21:42:15.788Z,9.69
2023-04-11T21:47:18.171Z,9.70
2023-04-11T21:52:19.592Z,9.64
2023-04-11T21:57:21.217Z,9.58
2023-04-11T22:02:22.924Z,9.61
2023-04-11T22:07:24.656Z,9.64
2023-04-11T22:12:27.203Z,9.64
2023-04-11T22:17:32.204Z,9.60
2023-04-11T22:22:37.916Z,9.63
2023-04-11T22:27:39.534Z,9.58
2023-04-11T22:32:41.055Z,9.54
2023-04-11T22:37:42.909Z,9.57
2023-04-11T22:42:51.291Z,9.54
2023-04-11T22:47:55.667Z,9.41
2023-04-11T22:52:59.457Z,9.31
2023-04-11T22:58:01.892Z,9.19
2023-04-11T23:03:05.234Z,9.14
2023-04-11T23:08:10.960Z,9.15
2023-04-11T23:13:12.707Z,9.05
2023-04-11T23:18:14.363Z,9.02
2023-04-11T23:23:16.368Z,8.98
2023-04-11T23:28:17.933Z,8.89
2023-04-11T23:33:19.456Z,8.86
2023-04-11T23:38:21.453Z,8.77
2023-04-11T23:43:22.911Z,8.75
2023-04-11T23:48:24.403Z,8.69
2023-04-11T23:53:25.944Z,8.63
2023-04-11T23:58:27.327Z,8.57
